createdAt,value
2023-03-30T00:01:16.864Z,6.43
2023-03-30T00:03:44.912Z,4.40
2023-03-30T00:06:24.498Z,7.80
2023-03-30T00:08:52.582Z,8.03
2023-03-30T00:11:20.021Z,10.93
2023-03-30T00:13:48.587Z,6.17
2023-03-30T00:20:00.746Z,7.13
2023-03-30T00:22:28.404Z,8.20
2023-03-30T00:24:55.682Z,6.63
2023-03-30T00:27:22.993Z,5.43
2023-03-30T00:29:51.560Z,7.27
2023-03-30T00:32:18.844Z,7.80
2023-03-30T00:34:51.462Z,5.67
2023-03-30T00:37:18.822Z,5.70
2023-03-30T00:39:46.032Z,4.07
2023-03-30T00:42:14.779Z,5.97
2023-03-30T00:51:29.353Z,5.57
2023-03-30T00:54:00.311Z,5.47
2023-03-30T00:56:29.979Z,6.30
2023-03-30T00:58:57.320Z,6.33
2023-03-30T01:01:24.719Z,6.20
2023-03-30T01:04:08.534Z,4.87
2023-03-30T01:06:38.322Z,10.80
2023-03-30T01:09:05.605Z,7.40
2023-03-30T01:11:32.887Z,6.53
2023-03-30T01:14:18.617Z,9.73
2023-03-30T01:20:48.922Z,6.93
2023-03-30T01:23:41.713Z,9.90
2023-03-30T01:26:30.261Z,10.77
2023-03-30T01:28:59.065Z,6.20
2023-03-30T01:31:35.437Z,7.93
2023-03-30T01:34:29.088Z,9.83
2023-03-30T01:37:03.814Z,5.97
2023-03-30T01:39:39.472Z,10.23
2023-03-30T01:42:10.901Z,6.03
2023-03-30T01:45:00.383Z,7.73
2023-03-30T01:48:00.310Z,9.10
2023-03-30T01:50:53.615Z,10.70
2023-03-30T01:53:24.383Z,6.37
2023-03-30T01:55:56.066Z,9.73
2023-03-30T01:58:27.828Z,8.07
2023-03-30T02:00:55.491Z,5.33
2023-03-30T02:06:08.988Z,10.97
2023-03-30T02:08:37.160Z,5.00
2023-03-30T02:11:07.096Z,7.37
2023-03-30T02:13:37.639Z,10.80
2023-03-30T02:16:09.767Z,3.00
2023-03-30T02:19:11.120Z,5.33
2023-03-30T02:25:32.032Z,7.50
2023-03-30T02:28:00.828Z,7.63
2023-03-30T02:30:31.891Z,4.47
2023-03-30T02:32:59.525Z,10.90
2023-03-30T02:35:42.378Z,6.93
2023-03-30T02:41:04.764Z,7.33
2023-03-30T02:43:38.708Z,6.23
2023-03-30T02:46:13.862Z,15.07
2023-03-30T02:49:03.971Z,9.07
2023-03-30T02:55:20.376Z,6.13
2023-03-30T02:57:55.597Z,5.77
2023-03-30T03:00:45.460Z,8.73
2023-03-30T03:03:20.536Z,6.73
2023-03-30T03:05:48.699Z,7.90
2023-03-30T03:08:33.014Z,7.10
2023-03-30T03:11:01.210Z,4.60
2023-03-30T03:13:30.657Z,3.60
2023-03-30T03:15:59.498Z,7.53
2023-03-30T03:18:50.837Z,8.90
2023-03-30T03:21:46.435Z,9.97
2023-03-30T03:24:23.013Z,8.23
2023-03-30T03:27:10.562Z,15.37
2023-03-30T03:30:04.320Z,13.57
2023-03-30T03:32:39.418Z,12.20
2023-03-30T03:35:07.145Z,9.30
2023-03-30T03:37:50.421Z,16.67
2023-03-30T03:40:17.777Z,5.93
2023-03-30T03:42:45.102Z,10.97
2023-03-30T03:45:14.249Z,12.60
2023-03-30T03:48:17.497Z,16.23
2023-03-30T03:54:30.978Z,15.70
2023-03-30T03:56:59.451Z,13.17
2023-03-30T03:59:26.871Z,12.67
2023-03-30T04:01:54.268Z,14.43
2023-03-30T04:04:22.954Z,14.80
2023-03-30T04:06:50.237Z,9.70
2023-03-30T04:09:18.490Z,16.87
2023-03-30T04:12:08.367Z,15.93
2023-03-30T04:14:42.182Z,10.27
2023-03-30T04:17:33.366Z,16.17
2023-03-30T04:24:10.528Z,10.27
2023-03-30T04:26:56.163Z,15.23
2023-03-30T04:29:48.194Z,15.87
2023-03-30T04:32:33.880Z,14.27
2023-03-30T04:35:24.096Z,16.50
2023-03-30T04:38:22.390Z,21.43
2023-03-30T04:41:08.125Z,14.57
2023-03-30T04:44:13.520Z,22.20
2023-03-30T04:46:58.034Z,16.33
2023-03-30T04:50:09.380Z,11.70
2023-03-30T04:53:10.738Z,16.60
2023-03-30T04:56:16.044Z,13.97
2023-03-30T04:58:57.364Z,19.60
2023-03-30T05:01:42.524Z,19.20
2023-03-30T05:04:34.315Z,19.30
2023-03-30T05:10:03.474Z,15.00
2023-03-30T05:12:51.006Z,19.30
2023-03-30T05:15:53.493Z,18.17
2023-03-30T05:18:39.601Z,20.20
2023-03-30T05:21:17.049Z,13.83
2023-03-30T05:28:00.775Z,22.33
2023-03-30T05:30:56.580Z,24.47
2023-03-30T05:33:48.517Z,23.50
2023-03-30T05:36:35.995Z,18.80
2023-03-30T05:39:18.086Z,23.53
2023-03-30T05:42:10.694Z,22.67
2023-03-30T05:44:43.127Z,24.63
2023-03-30T05:47:29.502Z,21.27
2023-03-30T05:50:08.356Z,15.23
2023-03-30T05:52:57.630Z,31.63
2023-03-30T05:56:03.116Z,25.40
2023-03-30T05:58:49.211Z,18.13
2023-03-30T06:01:36.962Z,28.63
2023-03-30T06:04:04.493Z,20.70
2023-03-30T06:06:32.494Z,22.13
2023-03-30T06:09:01.566Z,31.90
2023-03-30T06:11:29.347Z,21.17
2023-03-30T06:14:08.097Z,30.03
2023-03-30T06:16:35.952Z,20.30
2023-03-30T06:19:03.667Z,24.77
2023-03-30T06:21:31.092Z,18.03
2023-03-30T06:24:17.469Z,22.03
2023-03-30T06:26:44.784Z,24.27
2023-03-30T06:29:12.274Z,19.90
2023-03-30T06:31:41.900Z,26.30
2023-03-30T06:34:32.392Z,23.93
2023-03-30T06:37:01.028Z,26.60
2023-03-30T06:39:29.652Z,22.10
2023-03-30T06:42:12.668Z,19.60
2023-03-30T06:45:03.828Z,21.80
2023-03-30T06:47:32.242Z,21.10
2023-03-30T06:49:59.707Z,18.60
2023-03-30T06:52:50.235Z,27.93
2023-03-30T06:55:18.955Z,19.27
2023-03-30T06:57:47.029Z,30.33
2023-03-30T07:00:15.149Z,24.57
2023-03-30T07:03:01.041Z,27.87
2023-03-30T07:05:35.427Z,21.13
2023-03-30T07:08:11.863Z,24.83
2023-03-30T07:10:46.877Z,15.70
2023-03-30T07:13:14.728Z,20.37
2023-03-30T07:15:42.672Z,28.23
2023-03-30T07:18:09.966Z,26.53
2023-03-30T07:20:37.309Z,31.47
2023-03-30T07:23:09.688Z,28.10
2023-03-30T07:25:37.014Z,30.07
2023-03-30T07:28:13.703Z,13.90
2023-03-30T07:30:41.353Z,22.83
2023-03-30T07:33:10.092Z,24.53
2023-03-30T07:35:37.408Z,27.17
2023-03-30T07:38:07.319Z,27.43
2023-03-30T07:40:38.568Z,22.33
2023-03-30T07:43:06.490Z,37.37
2023-03-30T07:45:35.475Z,33.30
2023-03-30T07:48:04.355Z,38.43
2023-03-30T07:50:31.743Z,37.40
2023-03-30T07:53:02.133Z,26.87
2023-03-30T07:55:29.669Z,26.83
2023-03-30T07:58:06.269Z,28.43
2023-03-30T08:00:50.800Z,24.20
2023-03-30T08:03:56.551Z,18.93
2023-03-30T08:06:24.600Z,31.30
2023-03-30T08:08:56.863Z,15.50
2023-03-30T08:11:24.555Z,36.97
2023-03-30T08:14:01.595Z,33.03
2023-03-30T08:16:30.253Z,32.53
2023-03-30T08:18:57.631Z,37.30
2023-03-30T08:21:25.310Z,30.50
2023-03-30T08:24:17.542Z,37.03
2023-03-30T08:27:04.671Z,26.90
2023-03-30T08:29:32.070Z,32.27
2023-03-30T08:32:00.790Z,23.07
2023-03-30T08:34:28.553Z,32.73
2023-03-30T08:36:55.890Z,36.13
2023-03-30T08:39:23.147Z,28.17
2023-03-30T08:42:23.857Z,30.07
2023-03-30T08:44:53.273Z,26.47
2023-03-30T08:47:26.530Z,35.47
2023-03-30T08:49:56.702Z,29.30
2023-03-30T08:52:39.631Z,19.23
2023-03-30T08:58:59.906Z,22.53
2023-03-30T09:01:31.798Z,28.53
2023-03-30T09:04:03.467Z,38.27
2023-03-30T09:06:39.342Z,27.83
2023-03-30T09:09:06.657Z,29.43
2023-03-30T09:14:51.999Z,44.43
2023-03-30T09:17:20.872Z,34.73
2023-03-30T09:19:54.478Z,37.63
2023-03-30T09:22:54.412Z,23.50
2023-03-30T09:28:34.208Z,27.00
2023-03-30T09:31:03.774Z,19.00
2023-03-30T09:33:34.181Z,27.13
2023-03-30T09:36:08.860Z,26.10
2023-03-30T09:38:37.535Z,26.80
2023-03-30T09:41:25.125Z,26.57
2023-03-30T09:43:52.492Z,23.43
2023-03-30T09:46:19.806Z,28.00
2023-03-30T09:48:47.781Z,32.17
2023-03-30T09:51:17.356Z,35.67
2023-03-30T09:57:41.766Z,45.60
2023-03-30T10:00:23.967Z,21.33
2023-03-30T10:02:56.051Z,15.27
2023-03-30T10:05:23.452Z,29.63
2023-03-30T10:07:55.573Z,29.90
2023-03-30T10:10:44.765Z,22.83
2023-03-30T10:13:14.168Z,17.80
2023-03-30T10:15:43.086Z,20.30
2023-03-30T10:18:22.029Z,19.90
2023-03-30T10:20:58.811Z,28.47
2023-03-30T10:27:22.763Z,24.63
2023-03-30T10:29:51.713Z,30.00
2023-03-30T10:32:20.309Z,20.00
2023-03-30T10:34:48.684Z,30.17
2023-03-30T10:37:17.595Z,29.67
2023-03-30T10:39:46.915Z,23.93
2023-03-30T10:42:39.045Z,26.23
2023-03-30T10:45:16.994Z,24.80
2023-03-30T10:47:50.087Z,17.43
2023-03-30T10:50:29.515Z,32.30
2023-03-30T11:00:06.647Z,25.43
2023-03-30T11:02:45.165Z,25.43
2023-03-30T11:05:15.290Z,18.03
2023-03-30T11:07:43.972Z,31.17
2023-03-30T11:10:31.600Z,28.50
2023-03-30T11:13:01.513Z,18.63
2023-03-30T11:15:31.069Z,19.30
2023-03-30T11:18:03.827Z,23.60
2023-03-30T11:27:48.960Z,23.90
2023-03-30T11:30:18.304Z,36.23
2023-03-30T11:32:47.785Z,37.20
2023-03-30T11:35:19.576Z,39.80
2023-03-30T11:37:49.384Z,24.90
2023-03-30T11:42:58.743Z,27.93
2023-03-30T11:45:35.436Z,32.43
2023-03-30T11:48:11.470Z,32.87
2023-03-30T11:57:25.038Z,14.80
2023-03-30T11:59:59.665Z,27.00
2023-03-30T12:02:30.214Z,28.77
2023-03-30T12:05:01.455Z,25.53
2023-03-30T12:07:32.414Z,38.77
2023-03-30T12:10:18.124Z,30.47
2023-03-30T12:12:47.601Z,33.07
2023-03-30T12:15:20.411Z,23.67
2023-03-30T12:17:50.817Z,30.83
2023-03-30T12:20:52.366Z,32.60
2023-03-30T12:27:06.188Z,31.40
2023-03-30T12:32:28.455Z,33.70
2023-03-30T12:34:57.273Z,37.73
2023-03-30T12:37:34.735Z,38.80
2023-03-30T12:40:19.063Z,25.07
2023-03-30T12:42:52.238Z,31.20
2023-03-30T12:45:30.497Z,30.70
2023-03-30T12:48:13.202Z,31.13
2023-03-30T12:51:04.622Z,17.37
2023-03-30T12:56:49.461Z,31.97
2023-03-30T12:59:23.776Z,32.30
2023-03-30T13:01:58.917Z,30.23
2023-03-30T13:04:29.481Z,31.97
2023-03-30T13:06:57.550Z,31.73
2023-03-30T13:09:44.007Z,34.63
2023-03-30T13:12:30.046Z,25.97
2023-03-30T13:14:58.367Z,28.23
2023-03-30T13:17:25.912Z,17.13
2023-03-30T13:26:45.225Z,23.03
2023-03-30T13:29:13.208Z,23.43
2023-03-30T13:32:01.368Z,29.13
2023-03-30T13:35:03.137Z,30.67
2023-03-30T13:37:40.083Z,28.90
2023-03-30T13:40:38.634Z,32.70
2023-03-30T13:43:21.714Z,32.27
2023-03-30T13:45:50.713Z,24.20
2023-03-30T13:48:37.474Z,27.13
2023-03-30T13:54:58.800Z,25.23
2023-03-30T13:57:30.662Z,24.70
2023-03-30T14:00:02.611Z,18.60
2023-03-30T14:02:43.131Z,26.43
2023-03-30T14:05:20.311Z,27.97
2023-03-30T14:08:00.031Z,35.07
2023-03-30T14:10:27.765Z,27.17
2023-03-30T14:12:56.195Z,27.10
2023-03-30T14:15:34.277Z,21.03
2023-03-30T14:18:21.635Z,21.43
2023-03-30T14:21:02.998Z,24.43
2023-03-30T14:23:54.343Z,26.20
2023-03-30T14:26:23.606Z,27.17
2023-03-30T14:28:54.512Z,27.53
2023-03-30T14:31:23.408Z,31.13
2023-03-30T14:33:50.856Z,26.57
2023-03-30T14:36:19.473Z,33.63
2023-03-30T14:39:08.465Z,27.03
2023-03-30T14:41:35.860Z,24.70
2023-03-30T14:44:04.390Z,17.67
2023-03-30T14:46:36.830Z,24.63
2023-03-30T14:55:48.816Z,26.47
2023-03-30T14:58:16.432Z,16.67
2023-03-30T15:00:43.940Z,27.17
2023-03-30T15:03:22.927Z,26.33
2023-03-30T15:06:04.073Z,17.43
2023-03-30T15:08:41.703Z,23.57
2023-03-30T15:11:11.188Z,15.83
2023-03-30T15:13:40.117Z,26.27
2023-03-30T15:16:08.095Z,18.80
2023-03-30T15:19:12.649Z,33.13
2023-03-30T15:25:03.208Z,24.97
2023-03-30T15:27:30.771Z,29.47
2023-03-30T15:30:01.265Z,24.93
2023-03-30T15:32:32.812Z,26.90
2023-03-30T15:35:05.053Z,24.37
2023-03-30T15:37:32.739Z,35.00
2023-03-30T15:42:49.759Z,23.57
2023-03-30T15:45:17.808Z,25.73
2023-03-30T15:47:45.188Z,28.27
2023-03-30T15:50:14.877Z,20.53
2023-03-30T15:52:43.507Z,23.43
2023-03-30T15:55:34.869Z,30.60
2023-03-30T15:58:18.549Z,27.13
2023-03-30T16:00:46.170Z,18.30
2023-03-30T16:03:13.814Z,24.37
2023-03-30T16:05:43.009Z,16.40
2023-03-30T16:08:10.661Z,23.80
2023-03-30T16:10:37.959Z,26.33
2023-03-30T16:15:55.313Z,26.07
2023-03-30T16:18:22.534Z,23.00
2023-03-30T16:20:51.214Z,19.45
2023-03-30T16:23:18.595Z,24.07
2023-03-30T16:25:45.826Z,19.33
2023-03-30T16:35:22.830Z,22.23
2023-03-30T16:37:51.846Z,19.57
2023-03-30T16:40:26.883Z,18.40
2023-03-30T16:42:54.302Z,18.23
2023-03-30T16:45:21.565Z,16.50
2023-03-30T16:47:48.791Z,20.23
2023-03-30T16:50:19.631Z,21.13
2023-03-30T16:52:46.904Z,20.40
2023-03-30T16:55:15.983Z,21.40
2023-03-30T16:57:43.281Z,25.90
2023-03-30T17:00:14.953Z,16.93
2023-03-30T17:02:42.309Z,21.67
2023-03-30T17:05:09.627Z,19.23
2023-03-30T17:07:36.871Z,21.73
2023-03-30T17:10:13.578Z,17.57
2023-03-30T17:12:42.412Z,23.73
2023-03-30T17:15:10.224Z,21.40
2023-03-30T17:17:37.665Z,18.47
2023-03-30T17:20:23.241Z,12.60
2023-03-30T17:22:50.953Z,23.87
2023-03-30T17:25:18.754Z,22.40
2023-03-30T17:27:47.532Z,22.53
2023-03-30T17:30:16.955Z,18.60
2023-03-30T17:32:44.276Z,21.20
2023-03-30T17:35:11.714Z,26.23
2023-03-30T17:37:39.539Z,19.47
2023-03-30T17:40:16.853Z,20.20
2023-03-30T17:42:44.322Z,22.67
2023-03-30T17:45:13.628Z,18.57
2023-03-30T17:47:41.299Z,19.90
2023-03-30T17:50:16.292Z,17.67
2023-03-30T17:52:43.546Z,18.33
2023-03-30T17:55:10.891Z,23.97
2023-03-30T17:57:38.222Z,26.43
2023-03-30T18:00:07.830Z,20.83
2023-03-30T18:02:36.599Z,21.83
2023-03-30T18:05:03.885Z,22.77
2023-03-30T18:07:33.589Z,20.07
2023-03-30T18:10:00.995Z,25.23
2023-03-30T18:12:28.277Z,32.53
2023-03-30T18:14:55.540Z,18.93
2023-03-30T18:17:25.328Z,28.27
2023-03-30T18:19:54.099Z,25.23
2023-03-30T18:22:21.446Z,27.07
2023-03-30T18:24:48.763Z,19.63
2023-03-30T18:27:15.994Z,24.53
2023-03-30T18:29:43.452Z,22.73
2023-03-30T18:32:10.701Z,23.70
2023-03-30T18:34:37.964Z,22.83
2023-03-30T18:37:06.557Z,23.03
2023-03-30T18:39:33.802Z,22.07
2023-03-30T18:42:01.024Z,18.43
2023-03-30T18:44:28.379Z,25.57
2023-03-30T18:46:55.647Z,27.17
2023-03-30T18:49:22.905Z,18.60
2023-03-30T18:51:50.094Z,21.30
2023-03-30T18:54:18.717Z,21.90
2023-03-30T18:56:45.968Z,31.43
2023-03-30T18:59:13.246Z,21.40
2023-03-30T19:01:40.488Z,26.33
2023-03-30T19:04:07.736Z,30.40
2023-03-30T19:06:34.960Z,29.30
2023-03-30T19:09:02.156Z,30.70
2023-03-30T19:11:30.730Z,21.17
2023-03-30T19:13:57.947Z,26.73
2023-03-30T19:16:25.182Z,32.37
2023-03-30T19:18:52.430Z,31.40
2023-03-30T19:21:19.809Z,29.10
2023-03-30T19:23:47.214Z,27.77
2023-03-30T19:26:14.604Z,23.27
2023-03-30T19:28:43.224Z,33.57
2023-03-30T19:31:11.345Z,34.30
2023-03-30T19:33:39.229Z,30.43
2023-03-30T19:36:06.845Z,26.43
2023-03-30T19:38:34.510Z,27.83
2023-03-30T19:41:02.582Z,30.70
2023-03-30T19:43:30.366Z,26.20
2023-03-30T19:45:58.974Z,20.73
2023-03-30T19:48:26.216Z,34.00
2023-03-30T19:50:53.422Z,33.00
2023-03-30T19:53:20.677Z,32.23
2023-03-30T19:55:47.944Z,28.60
2023-03-30T19:58:15.193Z,30.63
2023-03-30T20:00:42.449Z,26.13
2023-03-30T20:03:12.362Z,31.47
2023-03-30T20:05:40.031Z,29.17
2023-03-30T20:08:20.961Z,37.87
2023-03-30T20:10:51.022Z,39.67
2023-03-30T20:13:18.393Z,29.20
2023-03-30T20:15:46.035Z,30.07
2023-03-30T20:18:14.944Z,34.50
2023-03-30T20:20:42.260Z,24.30
2023-03-30T20:23:09.491Z,22.43
2023-03-30T20:25:36.792Z,33.53
2023-03-30T20:28:04.077Z,28.03
2023-03-30T20:30:31.273Z,23.90
2023-03-30T20:33:07.260Z,21.70
2023-03-30T20:35:37.334Z,31.93
2023-03-30T20:38:04.670Z,23.20
2023-03-30T20:40:32.693Z,28.73
2023-03-30T20:43:00.004Z,32.33
2023-03-30T20:45:27.323Z,38.53
2023-03-30T20:47:54.724Z,23.70
2023-03-30T20:50:22.192Z,28.47
2023-03-30T20:52:50.870Z,34.77
2023-03-30T20:55:18.227Z,24.00
2023-03-30T20:57:45.430Z,33.00
2023-03-30T21:00:13.412Z,34.60
2023-03-30T21:02:40.666Z,36.10
2023-03-30T21:05:08.231Z,34.13
2023-03-30T21:07:35.542Z,30.23
2023-03-30T21:10:04.360Z,28.30
2023-03-30T21:12:31.699Z,25.33
2023-03-30T21:14:58.920Z,30.57
2023-03-30T21:17:26.227Z,31.93
2023-03-30T21:19:53.501Z,31.70
2023-03-30T21:22:20.780Z,23.83
2023-03-30T21:24:47.997Z,27.17
2023-03-30T21:27:16.890Z,27.73
2023-03-30T21:29:44.127Z,29.33
2023-03-30T21:32:11.380Z,22.30
2023-03-30T21:34:38.604Z,21.70
2023-03-30T21:37:05.930Z,22.70
2023-03-30T21:39:33.350Z,25.73
2023-03-30T21:42:00.599Z,23.63
2023-03-30T21:44:29.165Z,21.50
2023-03-30T21:46:56.590Z,24.87
2023-03-30T21:49:23.904Z,24.07
2023-03-30T21:51:51.116Z,26.70
2023-03-30T21:54:18.467Z,36.07
2023-03-30T21:56:46.173Z,36.47
2023-03-30T21:59:13.434Z,21.93
2023-03-30T22:01:42.061Z,33.40
2023-03-30T22:04:09.608Z,30.17
2023-03-30T22:06:36.876Z,25.80
2023-03-30T22:09:04.202Z,31.10
2023-03-30T22:11:31.454Z,22.40
2023-03-30T22:13:58.686Z,21.63
2023-03-30T22:16:26.586Z,22.23
2023-03-30T22:18:55.384Z,27.43
2023-03-30T22:21:23.563Z,22.87
2023-03-30T22:23:50.776Z,23.13
2023-03-30T22:26:18.079Z,23.00
2023-03-30T22:28:45.286Z,26.07
2023-03-30T22:31:13.597Z,22.63
2023-03-30T22:34:09.026Z,17.87
2023-03-30T22:37:01.994Z,22.77
2023-03-30T22:39:30.683Z,21.20
2023-03-30T22:41:57.925Z,20.03
2023-03-30T22:44:25.193Z,23.47
2023-03-30T22:46:52.438Z,25.40
2023-03-30T22:49:25.797Z,17.17
2023-03-30T22:51:53.288Z,19.73
2023-03-30T22:54:20.758Z,26.67
2023-03-30T22:56:49.548Z,21.37
2023-03-30T22:59:16.909Z,18.00
2023-03-30T23:01:44.506Z,22.97
2023-03-30T23:04:11.853Z,26.63
2023-03-30T23:06:39.224Z,18.23
2023-03-30T23:09:06.646Z,22.70
2023-03-30T23:11:33.919Z,17.87
2023-03-30T23:14:02.486Z,22.27
2023-03-30T23:16:29.682Z,16.40
2023-03-30T23:18:56.902Z,19.33
2023-03-30T23:21:24.129Z,16.87
2023-03-30T23:23:51.504Z,21.30
2023-03-30T23:26:18.670Z,21.97
2023-03-30T23:28:45.970Z,18.13
2023-03-30T23:31:15.399Z,17.30
2023-03-30T23:36:25.012Z,12.90
2023-03-30T23:38:52.269Z,15.30
2023-03-30T23:41:20.076Z,14.63
2023-03-30T23:43:47.387Z,14.03
2023-03-30T23:46:16.345Z,12.67
2023-03-30T23:52:31.126Z,15.30
2023-03-30T23:54:58.443Z,11.13
2023-03-30T23:57:25.861Z,12.57
2023-03-30T23:59:53.278Z,15.07
